createdAt,value
2019-04-22T00:00:34.587Z,54.66
2019-04-22T00:03:07.486Z,55.31
2019-04-22T00:05:54.984Z,55.71
2019-04-22T00:08:36.037Z,56.35
2019-04-22T00:11:19.557Z,56.32
2019-04-22T00:13:58.167Z,57.30
2019-04-22T00:16:19.483Z,57.78
2019-04-22T00:21:25.768Z,58.20
2019-04-22T00:23:59.126Z,58.83
2019-04-22T00:26:38.051Z,58.46
2019-04-22T00:29:36.023Z,59.12
2019-04-22T00:31:49.406Z,59.55
2019-04-22T00:34:16.654Z,60.53
2019-04-22T00:36:54.916Z,60.95
2019-04-22T00:39:33.715Z,61.95
2019-04-22T00:42:04.064Z,62.09
2019-04-22T00:47:07.389Z,62.86
2019-04-22T00:52:18.345Z,65.16
2019-04-22T00:54:53.208Z,65.10
2019-04-22T00:57:21.519Z,65.94
2019-04-22T00:59:57.267Z,65.92
2019-04-22T01:02:28.969Z,66.54
2019-04-22T01:05:04.033Z,66.73
2019-04-22T01:07:36.454Z,66.18
2019-04-22T01:10:12.860Z,66.16
2019-04-22T01:12:44.333Z,66.80
2019-04-22T01:15:27.221Z,67.67
2019-04-22T01:17:52.545Z,67.64
2019-04-22T01:20:54.616Z,68.42
2019-04-22T01:23:00.509Z,68.51
2019-04-22T01:25:29.447Z,68.60
2019-04-22T01:28:02.451Z,69.52
2019-04-22T01:30:32.439Z,70.18
2019-04-22T01:33:05.692Z,70.33
2019-04-22T01:35:45.621Z,69.84
2019-04-22T01:38:21.833Z,69.29
2019-04-22T01:41:07.145Z,69.55
2019-04-22T01:43:50.306Z,69.56
2019-04-22T01:46:14.251Z,69.26
2019-04-22T01:48:47.336Z,69.56
2019-04-22T01:51:22.357Z,70.17
2019-04-22T01:54:00.144Z,69.32
2019-04-22T01:56:27.333Z,70.85
2019-04-22T01:58:49.902Z,72.24
2019-04-22T02:01:37.431Z,72.01
2019-04-22T02:04:08.262Z,73.08
2019-04-22T02:06:43.620Z,74.66
2019-04-22T02:09:18.427Z,73.41
2019-04-22T02:11:56.908Z,72.54
2019-04-22T02:14:19.851Z,73.42
2019-04-22T02:16:56.133Z,73.35
2019-04-22T02:19:30.350Z,73.82
2019-04-22T02:21:56.444Z,74.36
2019-04-22T02:24:39.939Z,74.74
2019-04-22T02:27:12.362Z,74.31
2019-04-22T02:29:43.456Z,74.51
2019-04-22T02:32:33.887Z,74.54
2019-04-22T02:37:26.423Z,74.25
2019-04-22T02:40:09.633Z,74.27
2019-04-22T02:42:29.730Z,74.76
2019-04-22T02:44:58.462Z,75.08
2019-04-22T02:47:34.260Z,74.57
2019-04-22T02:50:16.131Z,74.57
2019-04-22T02:55:15.481Z,74.74
2019-04-22T02:57:47.452Z,75.10
2019-04-22T03:00:29.514Z,75.17
2019-04-22T03:03:11.408Z,75.37
2019-04-22T03:05:37.137Z,75.44
2019-04-22T03:08:21.215Z,75.63
2019-04-22T03:13:25.263Z,75.91
2019-04-22T03:15:59.558Z,76.60
2019-04-22T03:18:32.954Z,76.45
2019-04-22T03:21:14.159Z,76.44
2019-04-22T03:26:12.310Z,76.08
2019-04-22T03:28:47.711Z,76.66
2019-04-22T03:37:06.735Z,77.09
2019-04-22T03:44:27.019Z,77.67
2019-04-22T03:57:33.895Z,77.42
2019-04-22T04:02:15.732Z,76.97
2019-04-22T04:04:53.856Z,76.67
2019-04-22T04:07:40.514Z,77.05
2019-04-22T04:09:49.240Z,76.91
2019-04-22T04:12:25.160Z,77.12
2019-04-22T04:15:05.937Z,77.11
2019-04-22T04:25:27.321Z,77.26
2019-04-22T04:28:10.702Z,77.10
2019-04-22T04:30:21.274Z,76.58
2019-04-22T04:32:52.474Z,76.75
2019-04-22T04:35:32.304Z,75.69
2019-04-22T04:40:31.550Z,75.13
2019-04-22T04:42:58.315Z,74.17
2019-04-22T04:48:18.481Z,72.38
2019-04-22T04:50:47.380Z,71.81
2019-04-22T04:53:23.070Z,65.56
2019-04-22T04:55:51.731Z,53.07
2019-04-22T04:58:34.969Z,43.93
2019-04-22T05:03:41.682Z,38.39
2019-04-22T05:06:12.637Z,35.39
2019-04-22T05:11:16.150Z,32.82
2019-04-22T05:14:01.203Z,31.89
2019-04-22T05:19:05.648Z,31.00
2019-04-22T05:21:26.707Z,30.04
2019-04-22T05:24:02.659Z,29.08
2019-04-22T05:26:32.879Z,29.21
2019-04-22T05:29:06.579Z,28.33
2019-04-22T05:31:37.166Z,28.48
2019-04-22T05:34:08.235Z,29.95
2019-04-22T05:41:48.616Z,30.25
2019-04-22T05:44:23.539Z,28.68
2019-04-22T05:46:58.887Z,29.43
2019-04-22T05:49:33.007Z,32.06
2019-04-22T05:52:03.161Z,29.96
2019-04-22T05:57:14.266Z,29.47
2019-04-22T05:59:48.667Z,29.46
2019-04-22T06:02:23.540Z,28.53
2019-04-22T06:04:54.530Z,27.03
2019-04-22T06:07:22.842Z,27.26
2019-04-22T06:10:08.347Z,26.79
2019-04-22T06:12:29.767Z,27.05
2019-04-22T06:15:03.458Z,27.19
2019-04-22T06:17:48.988Z,26.73
2019-04-22T06:20:15.938Z,28.74
2019-04-22T06:25:39.603Z,28.56
2019-04-22T06:28:03.345Z,26.62
2019-04-22T06:30:34.583Z,28.14
2019-04-22T06:38:30.448Z,29.82
2019-04-22T06:41:00.333Z,29.70
2019-04-22T06:43:28.500Z,31.64
2019-04-22T06:46:06.395Z,31.92
2019-04-22T06:48:30.096Z,30.87
2019-04-22T06:51:06.458Z,33.94
2019-04-22T06:53:40.822Z,32.87
2019-04-22T06:58:51.473Z,33.86
2019-04-22T07:01:35.765Z,34.45
2019-04-22T07:03:53.189Z,36.25
2019-04-22T07:06:37.262Z,37.28
2019-04-22T07:11:29.680Z,35.55
2019-04-22T07:14:05.494Z,34.83
2019-04-22T07:16:44.659Z,33.25
2019-04-22T07:19:13.848Z,34.98
2019-04-22T07:21:52.399Z,38.01
2019-04-22T07:24:35.629Z,36.97
2019-04-22T07:26:57.624Z,39.58
2019-04-22T07:29:25.106Z,39.69
2019-04-22T07:32:00.378Z,39.97
2019-04-22T07:34:39.978Z,37.84
2019-04-22T07:37:23.360Z,41.30
2019-04-22T07:42:19.234Z,44.56
2019-04-22T07:44:51.247Z,44.17
2019-04-22T07:47:27.571Z,46.31
2019-04-22T07:49:59.426Z,44.60
2019-04-22T07:52:31.902Z,43.61
2019-04-22T07:55:13.297Z,41.79
2019-04-22T07:57:36.603Z,40.43
2019-04-22T08:00:20.700Z,40.00
2019-04-22T08:02:52.005Z,39.41
2019-04-22T08:05:22.315Z,39.81
2019-04-22T08:08:05.236Z,42.53
2019-04-22T08:10:40.399Z,43.72
2019-04-22T08:12:57.996Z,42.16
2019-04-22T08:15:42.048Z,41.20
2019-04-22T08:18:15.705Z,41.59
2019-04-22T08:20:49.775Z,42.16
2019-04-22T08:26:25.205Z,43.54
2019-04-22T08:29:02.307Z,44.30
2019-04-22T08:31:35.646Z,44.41
2019-04-22T08:34:12.033Z,45.04
2019-04-22T08:39:13.623Z,46.30
2019-04-22T08:41:40.288Z,47.99
2019-04-22T08:44:27.859Z,48.45
2019-04-22T08:49:32.209Z,49.61
2019-04-22T08:54:37.623Z,48.75
2019-04-22T08:57:15.960Z,49.62
2019-04-22T08:59:46.215Z,48.91
2019-04-22T09:02:23.031Z,49.03
2019-04-22T09:04:49.436Z,49.49
2019-04-22T09:09:55.714Z,49.56
2019-04-22T09:12:46.950Z,49.79
2019-04-22T09:15:08.628Z,49.90
2019-04-22T09:17:40.332Z,48.87
2019-04-22T09:20:18.756Z,48.69
2019-04-22T09:22:47.169Z,48.08
2019-04-22T09:25:24.042Z,48.03
2019-04-22T09:28:10.518Z,47.77
2019-04-22T09:30:37.394Z,48.40
2019-04-22T09:33:09.616Z,48.75
2019-04-22T09:35:41.375Z,49.25
2019-04-22T09:38:25.483Z,49.02
2019-04-22T09:40:45.895Z,47.88
2019-04-22T09:45:54.463Z,46.64
2019-04-22T09:48:31.880Z,46.42
2019-04-22T09:51:03.694Z,46.82
2019-04-22T09:53:39.238Z,46.42
2019-04-22T09:56:08.069Z,46.78
2019-04-22T09:58:39.556Z,46.76
2019-04-22T10:01:25.867Z,46.89
2019-04-22T10:04:11.342Z,45.58
2019-04-22T10:09:26.302Z,42.52
2019-04-22T10:11:43.647Z,42.46
2019-04-22T10:14:23.838Z,42.67
2019-04-22T10:16:54.980Z,42.42
2019-04-22T10:19:39.253Z,42.23
2019-04-22T10:22:19.906Z,40.71
2019-04-22T10:24:57.016Z,42.04
2019-04-22T10:27:32.731Z,41.50
2019-04-22T10:30:12.377Z,42.20
2019-04-22T10:32:48.143Z,41.43
2019-04-22T10:35:11.125Z,40.72
2019-04-22T10:37:42.579Z,41.50
2019-04-22T10:40:19.643Z,41.90
2019-04-22T10:42:56.793Z,40.94
2019-04-22T10:45:42.047Z,40.98
2019-04-22T10:48:16.784Z,40.42
2019-04-22T10:50:50.510Z,39.05
2019-04-22T10:53:23.747Z,39.33
2019-04-22T10:55:56.387Z,40.23
2019-04-22T10:58:28.814Z,39.58
2019-04-22T11:01:00.921Z,39.58
2019-04-22T11:03:33.275Z,40.19
2019-04-22T11:06:05.591Z,39.64
2019-04-22T11:08:43.327Z,38.43
2019-04-22T11:11:25.983Z,38.86
2019-04-22T11:13:55.990Z,38.76
2019-04-22T11:16:25.690Z,38.80
2019-04-22T11:18:59.234Z,39.01
2019-04-22T11:21:33.763Z,38.38
2019-04-22T11:24:06.767Z,37.88
2019-04-22T11:26:38.873Z,36.97
2019-04-22T11:29:12.068Z,36.93
2019-04-22T11:31:46.620Z,36.93
2019-04-22T11:34:21.330Z,36.52
2019-04-22T11:36:53.171Z,37.20
2019-04-22T11:39:26.866Z,37.03
2019-04-22T11:42:00.385Z,37.79
2019-04-22T11:44:33.337Z,38.40
2019-04-22T11:47:05.725Z,38.24
2019-04-22T11:49:37.297Z,38.26
2019-04-22T11:52:11.343Z,38.53
2019-04-22T11:54:43.803Z,37.97
2019-04-22T11:57:16.976Z,37.51
2019-04-22T11:59:49.452Z,37.51
2019-04-22T12:02:23.372Z,37.62
2019-04-22T12:04:59.455Z,37.29
2019-04-22T12:07:34.469Z,36.89
2019-04-22T12:10:17.758Z,37.27
2019-04-22T12:12:44.154Z,37.20
2019-04-22T12:15:15.327Z,37.74
2019-04-22T12:17:48.636Z,37.00
2019-04-22T12:20:23.438Z,37.40
2019-04-22T12:22:56.745Z,37.82
2019-04-22T12:25:41.954Z,36.78
2019-04-22T12:28:03.441Z,37.42
2019-04-22T12:30:37.322Z,36.60
2019-04-22T12:33:11.681Z,36.64
2019-04-22T12:35:44.238Z,37.10
2019-04-22T12:38:20.282Z,37.67
2019-04-22T12:40:57.414Z,37.82
2019-04-22T12:43:27.820Z,37.33
2019-04-22T12:46:00.393Z,37.39
2019-04-22T12:48:34.921Z,37.31
2019-04-22T12:51:09.283Z,37.27
2019-04-22T12:53:42.229Z,37.27
2019-04-22T12:56:15.405Z,36.86
2019-04-22T12:58:49.654Z,35.97
2019-04-22T13:01:21.512Z,35.39
2019-04-22T13:04:05.770Z,36.48
2019-04-22T13:06:33.371Z,36.02
2019-04-22T13:09:08.682Z,37.09
2019-04-22T13:11:40.782Z,36.59
2019-04-22T13:14:15.007Z,37.01
2019-04-22T13:16:47.286Z,37.04
2019-04-22T13:19:21.018Z,38.00
2019-04-22T13:21:52.665Z,37.48
2019-04-22T13:24:25.787Z,37.60
2019-04-22T13:26:59.129Z,37.27
2019-04-22T13:29:31.164Z,37.84
2019-04-22T13:32:06.846Z,38.00
2019-04-22T13:34:45.673Z,38.10
2019-04-22T13:37:12.863Z,37.03
2019-04-22T13:39:49.258Z,35.69
2019-04-22T13:42:30.149Z,35.33
2019-04-22T13:45:11.619Z,35.31
2019-04-22T13:48:01.496Z,34.89
2019-04-22T13:50:50.016Z,35.34
2019-04-22T13:53:42.569Z,35.66
2019-04-22T13:55:52.769Z,36.38
2019-04-22T13:58:14.690Z,35.75
2019-04-22T14:00:34.522Z,36.24
2019-04-22T14:03:24.938Z,35.97
2019-04-22T14:05:58.654Z,35.96
2019-04-22T14:08:31.376Z,35.51
2019-04-22T14:11:14.477Z,35.81
2019-04-22T14:13:37.746Z,35.88
2019-04-22T14:16:13.277Z,35.24
2019-04-22T14:18:46.112Z,35.36
2019-04-22T14:21:18.940Z,35.86
2019-04-22T14:23:50.968Z,36.00
2019-04-22T14:26:23.079Z,36.38
2019-04-22T14:28:55.682Z,36.88
2019-04-22T14:31:28.686Z,36.72
2019-04-22T14:34:04.981Z,37.37
2019-04-22T14:36:35.295Z,37.79
2019-04-22T14:39:10.365Z,37.50
2019-04-22T14:44:08.381Z,37.29
2019-04-22T14:47:27.842Z,36.60
2019-04-22T14:50:02.734Z,36.88
2019-04-22T14:52:42.526Z,36.78
2019-04-22T14:55:01.106Z,36.93
2019-04-22T14:57:23.362Z,36.73
2019-04-22T14:59:55.801Z,36.70
2019-04-22T15:02:28.043Z,36.87
2019-04-22T15:05:00.554Z,36.75
2019-04-22T15:07:33.100Z,36.62
2019-04-22T15:10:08.569Z,36.48
2019-04-22T15:12:46.151Z,36.71
2019-04-22T15:15:34.658Z,36.84
2019-04-22T15:18:10.191Z,36.58
2019-04-22T15:21:04.994Z,36.65
2019-04-22T15:23:38.487Z,36.92
2019-04-22T15:26:12.667Z,36.67
2019-04-22T15:28:45.191Z,36.58
2019-04-22T15:31:19.677Z,36.34
2019-04-22T15:33:52.343Z,36.60
2019-04-22T15:36:24.222Z,35.59
2019-04-22T15:38:57.474Z,35.58
2019-04-22T15:41:30.878Z,36.12
2019-04-22T15:44:03.702Z,36.93
2019-04-22T15:46:37.021Z,37.19
2019-04-22T15:49:09.897Z,38.05
2019-04-22T15:51:48.945Z,38.32
2019-04-22T15:54:23.504Z,38.38
2019-04-22T15:56:59.042Z,38.29
2019-04-22T15:59:48.986Z,38.04
2019-04-22T16:02:06.567Z,37.65
2019-04-22T16:04:38.930Z,37.74
2019-04-22T16:07:10.919Z,37.27
2019-04-22T16:09:45.611Z,36.91
2019-04-22T16:12:27.192Z,37.33
2019-04-22T16:14:56.977Z,37.95
2019-04-22T16:17:28.566Z,37.98
2019-04-22T16:20:01.538Z,38.03
2019-04-22T16:22:55.168Z,37.68
2019-04-22T16:25:45.042Z,37.69
2019-04-22T16:28:19.415Z,38.02
2019-04-22T16:30:51.204Z,38.24
2019-04-22T16:33:25.642Z,38.18
2019-04-22T16:35:58.770Z,38.44
2019-04-22T16:38:30.994Z,38.84
2019-04-22T16:41:03.030Z,39.02
2019-04-22T16:43:34.593Z,39.37
2019-04-22T16:46:07.825Z,39.45
2019-04-22T16:48:39.968Z,39.67
2019-04-22T16:51:11.908Z,39.74
2019-04-22T16:53:45.139Z,40.00
2019-04-22T16:56:17.073Z,39.87
2019-04-22T16:58:50.728Z,39.89
2019-04-22T17:01:30.547Z,39.90
2019-04-22T17:04:12.324Z,40.28
2019-04-22T17:06:47.815Z,40.43
2019-04-22T17:09:25.929Z,39.75
2019-04-22T17:11:59.021Z,39.44
2019-04-22T17:14:41.053Z,38.90
2019-04-22T17:17:10.606Z,38.97
2019-04-22T17:19:45.055Z,39.43
2019-04-22T17:22:17.987Z,40.00
2019-04-22T17:24:49.907Z,40.60
2019-04-22T17:27:22.371Z,40.74
2019-04-22T17:29:59.012Z,40.78
2019-04-22T17:32:33.893Z,40.83
2019-04-22T17:35:08.610Z,40.83
2019-04-22T17:37:42.784Z,41.03
2019-04-22T17:40:33.011Z,41.42
2019-04-22T17:43:28.429Z,41.58
2019-04-22T17:45:54.080Z,41.86
2019-04-22T17:48:40.221Z,42.17
2019-04-22T17:51:29.926Z,42.43
2019-04-22T17:54:07.216Z,42.77
2019-04-22T17:56:30.921Z,42.88
2019-04-22T17:59:11.994Z,43.14
2019-04-22T18:01:41.221Z,43.30
2019-04-22T18:03:59.296Z,43.84
2019-04-22T18:06:58.126Z,43.91
2019-04-22T18:09:41.173Z,43.59
2019-04-22T18:12:05.678Z,43.65
2019-04-22T18:14:57.693Z,44.01
2019-04-22T18:17:11.223Z,44.05
2019-04-22T18:19:39.603Z,44.24
2019-04-22T18:22:10.910Z,44.48
2019-04-22T18:24:49.402Z,44.67
2019-04-22T18:27:43.021Z,44.96
2019-04-22T18:29:58.982Z,45.32
2019-04-22T18:32:22.807Z,45.49
2019-04-22T18:35:08.053Z,45.65
2019-04-22T18:37:50.014Z,45.94
2019-04-22T18:40:24.273Z,45.96
2019-04-22T18:43:26.017Z,45.85
2019-04-22T18:46:06.534Z,46.22
2019-04-22T18:48:33.345Z,46.62
2019-04-22T18:51:25.768Z,46.88
2019-04-22T18:54:10.359Z,47.34
2019-04-22T18:56:46.503Z,47.55
2019-04-22T18:59:10.496Z,47.52
2019-04-22T19:01:37.840Z,47.39
2019-04-22T19:04:19.394Z,47.54
2019-04-22T19:07:13.988Z,47.64
2019-04-22T19:09:59.739Z,47.66
2019-04-22T19:15:04.144Z,47.68
2019-04-22T19:18:03.897Z,47.38
2019-04-22T19:20:37.695Z,47.32
2019-04-22T19:23:12.914Z,47.52
2019-04-22T19:25:36.931Z,47.15
2019-04-22T19:28:29.256Z,47.21
2019-04-22T19:31:10.792Z,47.29
2019-04-22T19:33:40.499Z,47.15
2019-04-22T19:36:35.829Z,47.47
2019-04-22T19:38:52.637Z,47.14
2019-04-22T19:41:36.349Z,47.04
2019-04-22T19:44:16.475Z,47.35
2019-04-22T19:47:06.811Z,47.57
2019-04-22T19:49:34.532Z,47.57
2019-04-22T19:52:11.365Z,47.74
2019-04-22T19:54:40.050Z,47.88
2019-04-22T19:57:21.358Z,47.76
2019-04-22T20:00:05.511Z,48.05
2019-04-22T20:03:07.304Z,48.23
2019-04-22T20:05:54.370Z,48.28
2019-04-22T20:08:31.221Z,48.36
2019-04-22T20:11:19.738Z,48.42
2019-04-22T20:14:00.887Z,48.41
2019-04-22T20:16:27.283Z,48.59
2019-04-22T20:19:06.969Z,48.45
2019-04-22T20:21:40.291Z,48.40
2019-04-22T20:24:07.989Z,48.77
2019-04-22T20:27:10.574Z,48.79
2019-04-22T20:29:56.429Z,48.93
2019-04-22T20:32:15.426Z,48.98
2019-04-22T20:34:57.594Z,48.98
2019-04-22T20:37:35.374Z,49.16
2019-04-22T20:40:10.284Z,49.32
2019-04-22T20:42:55.623Z,49.40
2019-04-22T20:45:26.281Z,49.47
2019-04-22T20:47:51.423Z,49.44
2019-04-22T20:50:48.042Z,49.34
2019-04-22T20:53:29.913Z,49.72
2019-04-22T20:56:04.303Z,49.46
2019-04-22T20:58:38.788Z,49.57
2019-04-22T21:01:11.624Z,49.78
2019-04-22T21:03:45.060Z,49.66
2019-04-22T21:06:35.300Z,50.01
2019-04-22T21:09:13.515Z,50.05
2019-04-22T21:11:53.648Z,49.85
2019-04-22T21:14:36.135Z,50.08
2019-04-22T21:17:15.357Z,49.86
2019-04-22T21:19:54.664Z,50.18
2019-04-22T21:22:27.311Z,50.31
2019-04-22T21:24:52.248Z,50.18
2019-04-22T21:27:42.318Z,50.39
2019-04-22T21:30:12.451Z,50.38
2019-04-22T21:32:49.501Z,50.50
2019-04-22T21:35:48.640Z,50.46
2019-04-22T21:38:06.187Z,50.43
2019-04-22T21:40:35.578Z,50.32
2019-04-22T21:43:12.180Z,50.46
2019-04-22T21:45:43.213Z,50.25
2019-04-22T21:48:27.473Z,50.26
2019-04-22T21:50:59.508Z,50.41
2019-04-22T21:53:31.484Z,50.38
2019-04-22T21:56:11.609Z,50.58
2019-04-22T21:58:49.037Z,50.36
2019-04-22T22:04:03.115Z,50.51
2019-04-22T22:06:25.011Z,50.67
2019-04-22T22:09:07.237Z,50.84
2019-04-22T22:11:35.747Z,51.01
2019-04-22T22:14:12.340Z,50.77
2019-04-22T22:16:38.341Z,50.87
2019-04-22T22:19:15.704Z,51.09
2019-04-22T22:21:58.649Z,51.30
2019-04-22T22:24:36.959Z,51.30
2019-04-22T22:27:04.845Z,51.57
2019-04-22T22:29:55.838Z,51.59
2019-04-22T22:32:12.993Z,51.80
2019-04-22T22:34:46.442Z,51.61
2019-04-22T22:37:12.124Z,51.57
2019-04-22T22:39:42.891Z,51.66
2019-04-22T22:42:10.921Z,51.80
2019-04-22T22:44:44.855Z,52.08
2019-04-22T22:47:34.252Z,52.10
2019-04-22T22:50:12.881Z,52.21
2019-04-22T22:55:14.806Z,52.50
2019-04-22T22:57:52.707Z,52.71
2019-04-22T23:00:28.756Z,52.67
2019-04-22T23:03:36.452Z,52.67
2019-04-22T23:05:45.481Z,52.63
2019-04-22T23:08:17.001Z,52.69
2019-04-22T23:10:55.593Z,52.66
2019-04-22T23:13:25.863Z,52.72
2019-04-22T23:15:46.699Z,52.81
2019-04-22T23:18:07.843Z,52.87
2019-04-22T23:20:45.134Z,52.85
2019-04-22T23:26:07.471Z,52.85
2019-04-22T23:28:41.834Z,52.26
2019-04-22T23:31:14.062Z,52.58
2019-04-22T23:33:56.090Z,52.83
2019-04-22T23:36:52.485Z,52.59
2019-04-22T23:39:33.319Z,52.49
2019-04-22T23:42:06.111Z,52.52
2019-04-22T23:44:39.829Z,52.32
2019-04-22T23:47:07.275Z,52.27
2019-04-22T23:49:42.616Z,51.88
2019-04-22T23:55:02.113Z,51.97
2019-04-22T23:57:41.878Z,51.86
